sensor_id;sensor_type;location;lat;lon;timestamp;pressure;altitude;pressure_sealevel;temperature;humidity
58295;BME280;45705;55.592;37.460;2023-03-04T00:01:44;97443.41;;;-2.23;100.00
58295;BME280;45705;55.592;37.460;2023-03-04T00:04:10;97443.94;;;-2.06;100.00
58295;BME280;45705;55.592;37.460;2023-03-04T00:06:36;97432.25;;;-2.30;100.00
58295;BME280;45705;55.592;37.460;2023-03-04T00:09:02;97436.47;;;-1.93;100.00
58295;BME280;45705;55.592;37.460;2023-03-04T00:11:30;97436.97;;;-1.76;100.00
58295;BME280;45705;55.592;37.460;2023-03-04T00:13:55;97426.59;;;-1.83;100.00
58295;BME280;45705;55.592;37.460;2023-03-04T00:16:22;97427.41;;;-1.92;100.00
58295;BME280;45705;55.592;37.460;2023-03-04T00:18:52;97424.25;;;-2.56;100.00
58295;BME280;45705;55.592;37.460;2023-03-04T00:21:18;97417.63;;;-2.23;100.00
58295;BME280;45705;55.592;37.460;2023-03-04T00:23:44;97424.25;;;-2.10;100.00
58295;BME280;45705;55.592;37.460;2023-03-04T00:26:09;97412.53;;;-2.09;100.00
58295;BME280;45705;55.592;37.460;2023-03-04T00:28:36;97406.66;;;-2.06;100.00
58295;BME280;45705;55.592;37.460;2023-03-04T00:31:03;97412.75;;;-1.85;100.00
58295;BME280;45705;55.592;37.460;2023-03-04T00:33:29;97403.44;;;-1.92;100.00
58295;BME280;45705;55.592;37.460;2023-03-04T00:35:56;97403.91;;;-1.75;100.00
58295;BME280;45705;55.592;37.460;2023-03-04T00:38:21;97414.88;;;-1.87;100.00
58295;BME280;45705;55.592;37.460;2023-03-04T00:40:47;97403.44;;;-1.87;100.00
58295;BME280;45705;55.592;37.460;2023-03-04T00:43:13;97393.25;;;-1.75;100.00
58295;BME280;45705;55.592;37.460;2023-03-04T00:45:39;97390.59;;;-1.75;100.00
58295;BME280;45705;55.592;37.460;2023-03-04T00:48:04;97395.41;;;-1.72;100.00
58295;BME280;45705;55.592;37.460;2023-03-04T00:50:30;97401.66;;;-2.23;100.00
58295;BME280;45705;55.592;37.460;2023-03-04T00:52:56;97401.34;;;-2.06;100.00
58295;BME280;45705;55.592;37.460;2023-03-04T00:55:21;97406.16;;;-2.13;100.00
58295;BME280;45705;55.592;37.460;2023-03-04T00:57:47;97404.53;;;-2.14;100.00
58295;BME280;45705;55.592;37.460;2023-03-04T01:00:14;97399.78;;;-2.38;100.00
58295;BME280;45705;55.592;37.460;2023-03-04T01:02:40;97397.09;;;-2.22;100.00
58295;BME280;45705;55.592;37.460;2023-03-04T01:05:07;97396.03;;;-2.37;100.00
58295;BME280;45705;55.592;37.460;2023-03-04T01:07:33;97397.63;;;-2.15;100.00
58295;BME280;45705;55.592;37.460;2023-03-04T01:09:59;97398.16;;;-2.18;100.00
58295;BME280;45705;55.592;37.460;2023-03-04T01:12:25;97400.84;;;-2.13;100.00
58295;BME280;45705;55.592;37.460;2023-03-04T01:14:51;97392.84;;;-2.18;100.00
58295;BME280;45705;55.592;37.460;2023-03-04T01:17:16;97401.91;;;-2.29;100.00
58295;BME280;45705;55.592;37.460;2023-03-04T01:19:42;97398.63;;;-1.90;100.00
58295;BME280;45705;55.592;37.460;2023-03-04T01:22:08;97389.13;;;-2.27;100.00
58295;BME280;45705;55.592;37.460;2023-03-04T01:24:35;97388.31;;;-2.07;100.00
58295;BME280;45705;55.592;37.460;2023-03-04T01:27:01;97388.56;;;-2.14;100.00
58295;BME280;45705;55.592;37.460;2023-03-04T01:29:26;97387.81;;;-2.30;100.00
58295;BME280;45705;55.592;37.460;2023-03-04T01:31:52;97379.53;;;-2.13;100.00
58295;BME280;45705;55.592;37.460;2023-03-04T01:34:19;97382.69;;;-2.06;100.00
58295;BME280;45705;55.592;37.460;2023-03-04T01:36:44;97367.25;;;-2.04;100.00
58295;BME280;45705;55.592;37.460;2023-03-04T01:39:10;97373.66;;;-2.00;100.00
58295;BME280;45705;55.592;37.460;2023-03-04T01:41:36;97361.88;;;-1.88;100.00
58295;BME280;45705;55.592;37.460;2023-03-04T01:44:02;97371.47;;;-1.87;100.00
58295;BME280;45705;55.592;37.460;2023-03-04T01:46:29;97358.47;;;-1.99;100.00
58295;BME280;45705;55.592;37.460;2023-03-04T01:48:56;97357.41;;;-2.03;100.00
58295;BME280;45705;55.592;37.460;2023-03-04T01:51:22;97349.59;;;-1.84;100.00
58295;BME280;45705;55.592;37.460;2023-03-04T01:53:49;97355.19;;;-1.75;100.00
58295;BME280;45705;55.592;37.460;2023-03-04T01:56:24;97349.84;;;-1.70;100.00
58295;BME280;45705;55.592;37.460;2023-03-04T01:59:25;97345.31;;;-1.70;100.00
58295;BME280;45705;55.592;37.460;2023-03-04T02:01:52;97347.34;;;-2.37;100.00
58295;BME280;45705;55.592;37.460;2023-03-04T02:04:21;97345.47;;;-2.31;100.00
58295;BME280;45705;55.592;37.460;2023-03-04T02:06:49;97338.56;;;-2.32;100.00
58295;BME280;45705;55.592;37.460;2023-03-04T02:09:15;97332.16;;;-2.37;100.00
58295;BME280;45705;55.592;37.460;2023-03-04T02:11:42;97335.38;;;-2.45;100.00
58295;BME280;45705;55.592;37.460;2023-03-04T02:14:10;97331.09;;;-2.15;100.00
58295;BME280;45705;55.592;37.460;2023-03-04T02:16:36;97325.50;;;-2.24;100.00
58295;BME280;45705;55.592;37.460;2023-03-04T02:19:04;97330.63;;;-2.68;100.00
58295;BME280;45705;55.592;37.460;2023-03-04T02:21:32;97326.91;;;-2.78;100.00
58295;BME280;45705;55.592;37.460;2023-03-04T02:26:30;97316.13;;;-2.06;100.00
58295;BME280;45705;55.592;37.460;2023-03-04T02:28:58;97303.91;;;-2.07;100.00
58295;BME280;45705;55.592;37.460;2023-03-04T02:31:25;97300.75;;;-2.29;100.00
58295;BME280;45705;55.592;37.460;2023-03-04T02:33:54;97292.81;;;-2.40;100.00
58295;BME280;45705;55.592;37.460;2023-03-04T02:36:21;97290.66;;;-2.43;100.00
58295;BME280;45705;55.592;37.460;2023-03-04T02:38:49;97290.59;;;-2.12;100.00
58295;BME280;45705;55.592;37.460;2023-03-04T02:41:18;97276.94;;;-1.90;100.00
58295;BME280;45705;55.592;37.460;2023-03-04T02:43:46;97288.13;;;-1.93;100.00
58295;BME280;45705;55.592;37.460;2023-03-04T02:46:12;97276.22;;;-2.11;100.00
58295;BME280;45705;55.592;37.460;2023-03-04T02:48:38;97276.50;;;-2.12;100.00
58295;BME280;45705;55.592;37.460;2023-03-04T02:51:04;97272.25;;;-2.19;100.00
58295;BME280;45705;55.592;37.460;2023-03-04T02:53:31;97259.66;;;-1.98;100.00
58295;BME280;45705;55.592;37.460;2023-03-04T02:55:58;97262.25;;;-1.82;100.00
58295;BME280;45705;55.592;37.460;2023-03-04T02:58:27;97264.00;;;-2.17;100.00
58295;BME280;45705;55.592;37.460;2023-03-04T03:00:53;97263.91;;;-2.02;100.00
58295;BME280;45705;55.592;37.460;2023-03-04T03:03:19;97267.97;;;-2.09;100.00
58295;BME280;45705;55.592;37.460;2023-03-04T03:05:45;97266.88;;;-2.03;100.00
58295;BME280;45705;55.592;37.460;2023-03-04T03:08:11;97258.06;;;-1.99;100.00
58295;BME280;45705;55.592;37.460;2023-03-04T03:10:38;97257.53;;;-1.95;100.00
58295;BME280;45705;55.592;37.460;2023-03-04T03:13:05;97249.47;;;-1.90;100.00
58295;BME280;45705;55.592;37.460;2023-03-04T03:15:31;97250.31;;;-2.00;100.00
58295;BME280;45705;55.592;37.460;2023-03-04T03:17:57;97219.34;;;-2.41;100.00
58295;BME280;45705;55.592;37.460;2023-03-04T03:20:23;97215.59;;;-2.29;100.00
58295;BME280;45705;55.592;37.460;2023-03-04T03:22:49;97223.56;;;-2.24;100.00
58295;BME280;45705;55.592;37.460;2023-03-04T03:25:15;97241.63;;;-2.16;100.00
58295;BME280;45705;55.592;37.460;2023-03-04T03:27:41;97231.34;;;-1.88;100.00
58295;BME280;45705;55.592;37.460;2023-03-04T03:30:09;97233.03;;;-1.98;100.00
58295;BME280;45705;55.592;37.460;2023-03-04T03:32:36;97225.38;;;-2.20;100.00
58295;BME280;45705;55.592;37.460;2023-03-04T03:35:01;97228.56;;;-2.07;100.00
58295;BME280;45705;55.592;37.460;2023-03-04T03:37:29;97209.13;;;-2.13;100.00
58295;BME280;45705;55.592;37.460;2023-03-04T03:39:54;97216.09;;;-2.17;100.00
58295;BME280;45705;55.592;37.460;2023-03-04T03:42:20;97220.22;;;-1.95;100.00
58295;BME280;45705;55.592;37.460;2023-03-04T03:44:45;97217.00;;;-1.87;100.00
58295;BME280;45705;55.592;37.460;2023-03-04T03:47:11;97205.44;;;-1.72;100.00
58295;BME280;45705;55.592;37.460;2023-03-04T03:49:37;97204.19;;;-1.85;100.00
58295;BME280;45705;55.592;37.460;2023-03-04T03:52:03;97202.28;;;-1.80;100.00
58295;BME280;45705;55.592;37.460;2023-03-04T03:54:28;97193.97;;;-1.73;100.00
58295;BME280;45705;55.592;37.460;2023-03-04T03:56:54;97192.34;;;-1.69;100.00
58295;BME280;45705;55.592;37.460;2023-03-04T03:59:20;97188.63;;;-1.68;100.00
58295;BME280;45705;55.592;37.460;2023-03-04T04:01:45;97180.66;;;-1.73;100.00
58295;BME280;45705;55.592;37.460;2023-03-04T04:04:11;97179.63;;;-1.77;100.00
58295;BME280;45705;55.592;37.460;2023-03-04T04:06:37;97178.84;;;-1.77;100.00
58295;BME280;45705;55.592;37.460;2023-03-04T04:09:03;97174.22;;;-1.67;100.00
58295;BME280;45705;55.592;37.460;2023-03-04T04:11:28;97165.88;;;-1.89;100.00
58295;BME280;45705;55.592;37.460;2023-03-04T04:13:54;97164.09;;;-1.65;100.00
58295;BME280;45705;55.592;37.460;2023-03-04T04:16:20;97155.69;;;-1.82;100.00
58295;BME280;45705;55.592;37.460;2023-03-04T04:18:45;97149.25;;;-1.76;100.00
58295;BME280;45705;55.592;37.460;2023-03-04T04:21:14;97155.06;;;-1.69;100.00
58295;BME280;45705;55.592;37.460;2023-03-04T04:23:40;97153.72;;;-1.66;100.00
58295;BME280;45705;55.592;37.460;2023-03-04T04:26:05;97153.09;;;-1.53;100.00
58295;BME280;45705;55.592;37.460;2023-03-04T04:28:31;97158.06;;;-1.41;100.00
58295;BME280;45705;55.592;37.460;2023-03-04T04:30:57;97150.31;;;-1.37;100.00
58295;BME280;45705;55.592;37.460;2023-03-04T04:33:23;97148.44;;;-1.42;100.00
58295;BME280;45705;55.592;37.460;2023-03-04T04:35:49;97140.53;;;-1.47;100.00
58295;BME280;45705;55.592;37.460;2023-03-04T04:38:14;97147.13;;;-1.74;100.00
58295;BME280;45705;55.592;37.460;2023-03-04T04:40:40;97154.41;;;-1.55;100.00
58295;BME280;45705;55.592;37.460;2023-03-04T04:43:07;97153.19;;;-1.34;100.00
58295;BME280;45705;55.592;37.460;2023-03-04T04:45:34;97149.56;;;-1.48;100.00
58295;BME280;45705;55.592;37.460;2023-03-04T04:47:59;97145.84;;;-1.47;100.00
58295;BME280;45705;55.592;37.460;2023-03-04T04:50:26;97145.66;;;-1.27;100.00
58295;BME280;45705;55.592;37.460;2023-03-04T04:52:52;97138.91;;;-1.19;100.00
58295;BME280;45705;55.592;37.460;2023-03-04T04:55:17;97137.03;;;-1.19;100.00
58295;BME280;45705;55.592;37.460;2023-03-04T04:57:43;97126.06;;;-1.12;100.00
58295;BME280;45705;55.592;37.460;2023-03-04T05:00:09;97131.13;;;-1.10;100.00
58295;BME280;45705;55.592;37.460;2023-03-04T05:02:35;97133.97;;;-1.31;100.00
58295;BME280;45705;55.592;37.460;2023-03-04T05:05:03;97134.66;;;-1.49;100.00
58295;BME280;45705;55.592;37.460;2023-03-04T05:07:29;97128.97;;;-1.72;100.00
58295;BME280;45705;55.592;37.460;2023-03-04T05:09:54;97141.69;;;-1.64;100.00
58295;BME280;45705;55.592;37.460;2023-03-04T05:12:23;97136.75;;;-1.46;100.00
58295;BME280;45705;55.592;37.460;2023-03-04T05:14:49;97131.16;;;-1.15;100.00
58295;BME280;45705;55.592;37.460;2023-03-04T05:17:15;97134.97;;;-1.22;100.00
58295;BME280;45705;55.592;37.460;2023-03-04T05:19:40;97124.94;;;-1.06;100.00
58295;BME280;45705;55.592;37.460;2023-03-04T05:22:06;97129.03;;;-1.19;100.00
58295;BME280;45705;55.592;37.460;2023-03-04T05:24:32;97129.94;;;-1.58;100.00
58295;BME280;45705;55.592;37.460;2023-03-04T05:27:00;97128.88;;;-1.03;100.00
58295;BME280;45705;55.592;37.460;2023-03-04T05:29:26;97132.06;;;-1.25;100.00
58295;BME280;45705;55.592;37.460;2023-03-04T05:31:51;97127.75;;;-1.21;100.00
58295;BME280;45705;55.592;37.460;2023-03-04T05:34:17;97131.13;;;-1.10;100.00
58295;BME280;45705;55.592;37.460;2023-03-04T05:36:43;97110.63;;;-0.91;100.00
58295;BME280;45705;55.592;37.460;2023-03-04T05:39:09;97125.16;;;-1.02;100.00
58295;BME280;45705;55.592;37.460;2023-03-04T05:41:34;97122.22;;;-1.01;100.00
58295;BME280;45705;55.592;37.460;2023-03-04T05:44:00;97119.16;;;-0.89;100.00
58295;BME280;45705;55.592;37.460;2023-03-04T05:46:26;97105.97;;;-0.56;100.00
58295;BME280;45705;55.592;37.460;2023-03-04T05:48:52;97095.94;;;-1.12;100.00
58295;BME280;45705;55.592;37.460;2023-03-04T05:51:19;97116.38;;;-1.32;100.00
58295;BME280;45705;55.592;37.460;2023-03-04T05:53:44;97104.47;;;-1.40;100.00
58295;BME280;45705;55.592;37.460;2023-03-04T05:56:14;97109.94;;;-1.26;100.00
58295;BME280;45705;55.592;37.460;2023-03-04T05:58:40;97102.09;;;-1.41;100.00
58295;BME280;45705;55.592;37.460;2023-03-04T06:01:06;97102.34;;;-0.89;100.00
58295;BME280;45705;55.592;37.460;2023-03-04T06:03:33;97078.50;;;-0.81;100.00
58295;BME280;45705;55.592;37.460;2023-03-04T06:05:58;97106.66;;;-0.69;100.00
58295;BME280;45705;55.592;37.460;2023-03-04T06:08:24;97101.31;;;-0.69;100.00
58295;BME280;45705;55.592;37.460;2023-03-04T06:10:53;97090.03;;;-0.85;100.00
58295;BME280;45705;55.592;37.460;2023-03-04T06:13:19;97095.19;;;-0.94;100.00
58295;BME280;45705;55.592;37.460;2023-03-04T06:15:46;97087.00;;;-0.78;100.00
58295;BME280;45705;55.592;37.460;2023-03-04T06:18:11;97100.78;;;-0.47;100.00
58295;BME280;45705;55.592;37.460;2023-03-04T06:20:37;97094.00;;;-0.40;100.00
58295;BME280;45705;55.592;37.460;2023-03-04T06:23:04;97081.00;;;-0.27;100.00
58295;BME280;45705;55.592;37.460;2023-03-04T06:25:30;97078.75;;;-0.39;100.00
58295;BME280;45705;55.592;37.460;2023-03-04T06:27:56;97080.69;;;-0.45;100.00
58295;BME280;45705;55.592;37.460;2023-03-04T06:30:22;97071.63;;;-0.44;100.00
58295;BME280;45705;55.592;37.460;2023-03-04T06:32:49;97078.94;;;-0.11;100.00
58295;BME280;45705;55.592;37.460;2023-03-04T06:35:15;97072.31;;;0.19;100.00
58295;BME280;45705;55.592;37.460;2023-03-04T06:37:42;97074.22;;;0.32;100.00
58295;BME280;45705;55.592;37.460;2023-03-04T06:40:09;97072.84;;;0.35;99.73
58295;BME280;45705;55.592;37.460;2023-03-04T06:42:35;97068.41;;;0.11;99.81
58295;BME280;45705;55.592;37.460;2023-03-04T06:45:03;97068.91;;;0.13;99.95
58295;BME280;45705;55.592;37.460;2023-03-04T06:47:29;97048.81;;;-0.55;100.00
58295;BME280;45705;55.592;37.460;2023-03-04T06:49:55;97057.88;;;0.20;100.00
58295;BME280;45705;55.592;37.460;2023-03-04T06:52:21;97049.50;;;0.08;100.00
58295;BME280;45705;55.592;37.460;2023-03-04T06:54:47;97047.63;;;0.41;100.00
58295;BME280;45705;55.592;37.460;2023-03-04T06:57:12;97046.91;;;0.68;99.64
58295;BME280;45705;55.592;37.460;2023-03-04T06:59:38;97029.06;;;1.05;96.05
58295;BME280;45705;55.592;37.460;2023-03-04T07:02:04;97041.53;;;0.68;94.88
58295;BME280;45705;55.592;37.460;2023-03-04T07:04:30;97030.97;;;0.30;97.10
58295;BME280;45705;55.592;37.460;2023-03-04T07:06:56;97036.50;;;-0.32;100.00
58295;BME280;45705;55.592;37.460;2023-03-04T07:09:22;97032.63;;;-0.83;100.00
58295;BME280;45705;55.592;37.460;2023-03-04T07:11:48;97028.09;;;-0.82;100.00
58295;BME280;45705;55.592;37.460;2023-03-04T07:14:13;97024.91;;;-0.08;100.00
58295;BME280;45705;55.592;37.460;2023-03-04T07:16:40;97015.84;;;-0.45;100.00
58295;BME280;45705;55.592;37.460;2023-03-04T07:19:05;97015.78;;;-0.40;100.00
58295;BME280;45705;55.592;37.460;2023-03-04T07:21:31;97010.56;;;-0.31;100.00
58295;BME280;45705;55.592;37.460;2023-03-04T07:23:57;97011.56;;;-0.27;100.00
58295;BME280;45705;55.592;37.460;2023-03-04T07:26:23;97008.00;;;-0.36;100.00
58295;BME280;45705;55.592;37.460;2023-03-04T07:28:48;96999.06;;;-0.46;100.00
58295;BME280;45705;55.592;37.460;2023-03-04T07:31:23;97003.72;;;-0.18;100.00
58295;BME280;45705;55.592;37.460;2023-03-04T07:33:50;96997.59;;;-0.38;100.00
58295;BME280;45705;55.592;37.460;2023-03-04T07:36:16;96990.91;;;-0.03;100.00
58295;BME280;45705;55.592;37.460;2023-03-04T07:38:45;96997.47;;;-0.14;100.00
58295;BME280;45705;55.592;37.460;2023-03-04T07:41:11;96982.38;;;-0.05;100.00
58295;BME280;45705;55.592;37.460;2023-03-04T07:43:37;96990.56;;;0.18;100.00
58295;BME280;45705;55.592;37.460;2023-03-04T07:46:04;96981.44;;;0.19;100.00
58295;BME280;45705;55.592;37.460;2023-03-04T07:48:30;96983.69;;;0.45;100.00
58295;BME280;45705;55.592;37.460;2023-03-04T07:51:22;96984.97;;;0.47;100.00
58295;BME280;45705;55.592;37.460;2023-03-04T07:53:51;96970.69;;;0.24;100.00
58295;BME280;45705;55.592;37.460;2023-03-04T07:56:20;96970.38;;;0.26;100.00
58295;BME280;45705;55.592;37.460;2023-03-04T07:58:46;96970.63;;;0.57;100.00
58295;BME280;45705;55.592;37.460;2023-03-04T08:01:14;96972.00;;;0.68;100.00
58295;BME280;45705;55.592;37.460;2023-03-04T08:03:41;96957.25;;;0.57;100.00
58295;BME280;45705;55.592;37.460;2023-03-04T08:06:09;96957.53;;;0.42;100.00
58295;BME280;45705;55.592;37.460;2023-03-04T08:08:35;96956.88;;;1.14;100.00
58295;BME280;45705;55.592;37.460;2023-03-04T08:11:06;96951.16;;;0.93;98.90
58295;BME280;45705;55.592;37.460;2023-03-04T08:13:33;96949.88;;;0.90;98.82
58295;BME280;45705;55.592;37.460;2023-03-04T08:15:59;96953.97;;;0.46;98.98
58295;BME280;45705;55.592;37.460;2023-03-04T08:18:25;96950.00;;;0.44;99.07
58295;BME280;45705;55.592;37.460;2023-03-04T08:20:50;96948.59;;;0.32;100.00
58295;BME280;45705;55.592;37.460;2023-03-04T08:23:17;96937.44;;;0.30;100.00
58295;BME280;45705;55.592;37.460;2023-03-04T08:25:43;96951.69;;;0.53;99.84
58295;BME280;45705;55.592;37.460;2023-03-04T08:28:10;96933.75;;;0.40;100.00
58295;BME280;45705;55.592;37.460;2023-03-04T08:30:38;96927.38;;;1.05;96.85
58295;BME280;45705;55.592;37.460;2023-03-04T08:33:05;96932.81;;;1.00;95.77
58295;BME280;45705;55.592;37.460;2023-03-04T08:35:34;96924.41;;;0.93;93.24
58295;BME280;45705;55.592;37.460;2023-03-04T08:38:01;96925.44;;;1.20;93.05
58295;BME280;45705;55.592;37.460;2023-03-04T08:40:26;96928.28;;;0.87;91.27
58295;BME280;45705;55.592;37.460;2023-03-04T08:42:52;96917.94;;;1.44;89.18
58295;BME280;45705;55.592;37.460;2023-03-04T08:45:18;96910.75;;;1.31;87.22
58295;BME280;45705;55.592;37.460;2023-03-04T08:47:43;96911.97;;;1.25;87.97
58295;BME280;45705;55.592;37.460;2023-03-04T08:50:10;96893.34;;;1.42;88.47
58295;BME280;45705;55.592;37.460;2023-03-04T08:52:35;96900.50;;;1.78;85.80
58295;BME280;45705;55.592;37.460;2023-03-04T08:55:01;96890.06;;;1.68;86.84
58295;BME280;45705;55.592;37.460;2023-03-04T08:57:29;96892.16;;;1.80;84.90
58295;BME280;45705;55.592;37.460;2023-03-04T08:59:55;96884.88;;;1.49;87.38
58295;BME280;45705;55.592;37.460;2023-03-04T09:02:21;96888.31;;;1.94;85.14
58295;BME280;45705;55.592;37.460;2023-03-04T09:04:46;96889.94;;;1.50;84.83
58295;BME280;45705;55.592;37.460;2023-03-04T09:07:12;96882.22;;;1.26;85.99
58295;BME280;45705;55.592;37.460;2023-03-04T09:09:39;96876.88;;;0.90;87.80
58295;BME280;45705;55.592;37.460;2023-03-04T09:12:05;96870.78;;;1.34;84.89
58295;BME280;45705;55.592;37.460;2023-03-04T09:14:30;96871.03;;;0.88;86.62
58295;BME280;45705;55.592;37.460;2023-03-04T09:16:57;96876.97;;;1.21;85.96
58295;BME280;45705;55.592;37.460;2023-03-04T09:19:23;96853.69;;;1.44;85.59
58295;BME280;45705;55.592;37.460;2023-03-04T09:21:49;96859.94;;;1.93;82.51
58295;BME280;45705;55.592;37.460;2023-03-04T09:24:14;96858.97;;;1.58;83.57
58295;BME280;45705;55.592;37.460;2023-03-04T09:26:40;96848.81;;;1.77;83.12
58295;BME280;45705;55.592;37.460;2023-03-04T09:29:06;96833.31;;;2.46;79.20
58295;BME280;45705;55.592;37.460;2023-03-04T09:31:32;96833.16;;;2.51;76.80
58295;BME280;45705;55.592;37.460;2023-03-04T09:33:58;96818.19;;;3.02;75.07
58295;BME280;45705;55.592;37.460;2023-03-04T09:36:25;96800.84;;;3.00;72.23
58295;BME280;45705;55.592;37.460;2023-03-04T09:38:50;96814.03;;;1.86;76.13
58295;BME280;45705;55.592;37.460;2023-03-04T09:41:41;96808.09;;;1.98;77.43
58295;BME280;45705;55.592;37.460;2023-03-04T09:46:49;96805.19;;;1.77;78.85
58295;BME280;45705;55.592;37.460;2023-03-04T09:49:16;96791.16;;;1.80;80.19
58295;BME280;45705;55.592;37.460;2023-03-04T09:57:22;96783.84;;;1.63;82.25
58295;BME280;45705;55.592;37.460;2023-03-04T10:10:45;96760.13;;;1.16;89.57
58295;BME280;45705;55.592;37.460;2023-03-04T10:13:20;96764.81;;;1.11;91.38
58295;BME280;45705;55.592;37.460;2023-03-04T10:15:50;96760.16;;;1.25;91.94
58295;BME280;45705;55.592;37.460;2023-03-04T10:18:24;96759.75;;;1.63;90.42
58295;BME280;45705;55.592;37.460;2023-03-04T10:21:29;96756.72;;;1.25;94.66
58295;BME280;45705;55.592;37.460;2023-03-04T10:23:57;96751.72;;;1.72;91.65
58295;BME280;45705;55.592;37.460;2023-03-04T10:26:28;96742.75;;;1.05;97.69
58295;BME280;45705;55.592;37.460;2023-03-04T10:28:55;96739.78;;;0.84;100.00
58295;BME280;45705;55.592;37.460;2023-03-04T10:31:33;96733.84;;;0.73;100.00
58295;BME280;45705;55.592;37.460;2023-03-04T10:34:02;96735.44;;;0.74;100.00
58295;BME280;45705;55.592;37.460;2023-03-04T10:38:59;96722.00;;;0.66;100.00
58295;BME280;45705;55.592;37.460;2023-03-04T10:41:27;96705.63;;;1.12;100.00
58295;BME280;45705;55.592;37.460;2023-03-04T10:46:39;96719.16;;;0.85;100.00
58295;BME280;45705;55.592;37.460;2023-03-04T10:49:06;96709.78;;;0.96;100.00
58295;BME280;45705;55.592;37.460;2023-03-04T10:51:41;96707.97;;;1.05;100.00
58295;BME280;45705;55.592;37.460;2023-03-04T10:57:03;96693.88;;;0.68;100.00
58295;BME280;45705;55.592;37.460;2023-03-04T11:02:32;96692.19;;;1.04;100.00
58295;BME280;45705;55.592;37.460;2023-03-04T11:05:06;96686.56;;;1.05;100.00
58295;BME280;45705;55.592;37.460;2023-03-04T11:07:43;96678.31;;;0.70;100.00
58295;BME280;45705;55.592;37.460;2023-03-04T11:13:13;96661.81;;;1.00;100.00
58295;BME280;45705;55.592;37.460;2023-03-04T11:20:55;96644.13;;;0.58;100.00
58295;BME280;45705;55.592;37.460;2023-03-04T11:26:11;96648.09;;;0.25;100.00
58295;BME280;45705;55.592;37.460;2023-03-04T11:28:51;96653.25;;;0.21;100.00
58295;BME280;45705;55.592;37.460;2023-03-04T11:31:27;96644.78;;;0.42;100.00
58295;BME280;45705;55.592;37.460;2023-03-04T11:34:00;96617.13;;;0.46;100.00
58295;BME280;45705;55.592;37.460;2023-03-04T11:38:58;96631.94;;;0.07;100.00
58295;BME280;45705;55.592;37.460;2023-03-04T11:41:34;96628.03;;;-0.09;100.00
58295;BME280;45705;55.592;37.460;2023-03-04T11:44:02;96619.50;;;0.03;100.00
58295;BME280;45705;55.592;37.460;2023-03-04T11:49:39;96617.16;;;-0.13;100.00
58295;BME280;45705;55.592;37.460;2023-03-04T11:57:54;96599.56;;;-0.14;100.00
58295;BME280;45705;55.592;37.460;2023-03-04T12:08:41;96587.16;;;-0.32;100.00
58295;BME280;45705;55.592;37.460;2023-03-04T12:31:51;96549.28;;;-0.12;100.00
58295;BME280;45705;55.592;37.460;2023-03-04T12:34:05;96545.53;;;-0.11;100.00
58295;BME280;45705;55.592;37.460;2023-03-04T12:39:35;96528.75;;;-0.11;100.00
58295;BME280;45705;55.592;37.460;2023-03-04T12:53:48;96512.25;;;-0.27;100.00
58295;BME280;45705;55.592;37.460;2023-03-04T12:56:35;96514.47;;;-0.07;100.00
58295;BME280;45705;55.592;37.460;2023-03-04T12:59:02;96503.06;;;-0.21;100.00
58295;BME280;45705;55.592;37.460;2023-03-04T13:04:03;96500.81;;;-0.05;100.00
58295;BME280;45705;55.592;37.460;2023-03-04T13:06:48;96492.84;;;0.04;100.00
58295;BME280;45705;55.592;37.460;2023-03-04T13:09:29;96488.72;;;-0.03;100.00
58295;BME280;45705;55.592;37.460;2023-03-04T13:14:36;96482.13;;;-0.28;100.00
58295;BME280;45705;55.592;37.460;2023-03-04T13:25:41;96454.94;;;-0.07;100.00
58295;BME280;45705;55.592;37.460;2023-03-04T13:43:48;96438.16;;;-0.22;100.00
58295;BME280;45705;55.592;37.460;2023-03-04T13:51:31;96420.09;;;-0.25;100.00
58295;BME280;45705;55.592;37.460;2023-03-04T13:56:29;96416.88;;;-0.13;100.00
58295;BME280;45705;55.592;37.460;2023-03-04T14:06:53;96392.13;;;-0.27;100.00
58295;BME280;45705;55.592;37.460;2023-03-04T14:09:21;96398.03;;;-0.39;100.00
58295;BME280;45705;55.592;37.460;2023-03-04T14:11:49;96393.72;;;-0.26;100.00
58295;BME280;45705;55.592;37.460;2023-03-04T14:14:19;96395.91;;;-0.51;100.00
58295;BME280;45705;55.592;37.460;2023-03-04T14:16:49;96392.09;;;-0.05;100.00
58295;BME280;45705;55.592;37.460;2023-03-04T14:19:27;96383.72;;;-0.12;100.00
58295;BME280;45705;55.592;37.460;2023-03-04T14:21:54;96380.31;;;-0.35;100.00
58295;BME280;45705;55.592;37.460;2023-03-04T14:24:21;96388.38;;;-0.26;100.00
58295;BME280;45705;55.592;37.460;2023-03-04T14:26:48;96386.63;;;-0.31;100.00
58295;BME280;45705;55.592;37.460;2023-03-04T14:29:28;96375.00;;;-0.35;100.00
58295;BME280;45705;55.592;37.460;2023-03-04T14:31:55;96368.44;;;-0.20;100.00
58295;BME280;45705;55.592;37.460;2023-03-04T14:34:34;96375.22;;;-0.14;100.00
58295;BME280;45705;55.592;37.460;2023-03-04T14:37:01;96364.81;;;-0.24;100.00
58295;BME280;45705;55.592;37.460;2023-03-04T14:39:31;96359.13;;;-0.31;100.00
58295;BME280;45705;55.592;37.460;2023-03-04T14:42:03;96366.56;;;-0.51;100.00
58295;BME280;45705;55.592;37.460;2023-03-04T14:44:40;96342.41;;;-0.46;100.00
58295;BME280;45705;55.592;37.460;2023-03-04T14:47:35;96353.19;;;-0.28;100.00
58295;BME280;45705;55.592;37.460;2023-03-04T14:50:17;96347.97;;;-0.33;100.00
58295;BME280;45705;55.592;37.460;2023-03-04T14:52:50;96344.34;;;-0.37;100.00
58295;BME280;45705;55.592;37.460;2023-03-04T14:55:27;96341.19;;;-0.40;100.00
58295;BME280;45705;55.592;37.460;2023-03-04T14:58:05;96349.34;;;-0.13;100.00
58295;BME280;45705;55.592;37.460;2023-03-04T15:00:38;96346.34;;;-0.12;100.00
58295;BME280;45705;55.592;37.460;2023-03-04T15:05:42;96336.47;;;-0.43;100.00
58295;BME280;45705;55.592;37.460;2023-03-04T15:08:20;96336.47;;;-0.03;100.00
58295;BME280;45705;55.592;37.460;2023-03-04T15:10:55;96336.81;;;-0.35;100.00
58295;BME280;45705;55.592;37.460;2023-03-04T15:13:37;96333.06;;;-0.34;100.00
58295;BME280;45705;55.592;37.460;2023-03-04T15:16:04;96330.25;;;-0.29;100.00